Kempsey, United Kingdom
Current Conditions -  °F | °C
As of 4:50 PM on Thursday 23 Oct 2014 (Local Time) from EGBJ Reporting Station
Broken Clouds Broken Clouds  
Wind Chill: 16°   Ceiling: 1400
Heat Index: 16°   Visibility: 6mi
Dew Point: 14°   Wind: 12mph
Humidity: 88%   Direction: 210°SSW
Pressure: 30"   Gusts: 23mph
Location:  52.14°N, 2.22°W
Report Text: EGBJ 231550Z 21010G20KT 9999 FEW009 BKN014 16/14 Q1016
Loading
Personal Weather Stations






























Interactive Weather Map
Tropical Storm Tracking
New forecast layout! Learn more

10-Day Weather Forecast

Advertisements
Track Severe Weather on mobile